Platitera Tonouranon — SX7180 — position and weather

sailwx.info

Track history (hours):
 
Tides and Currents Weather Stations Pressure Air Temp Water Temp Dewpoint Dewpoint Depression Visibility Wind Speed Wind Dir Waves Ship Positions

Platitera Tonouranon

Last reported at 2015-Jul-31 16:33 UTC. Time now 2015-Jul-31 23:29 UTC.
Position N 37°55' E 023°40'.

Length 55 m; draft 3.8 m.

Type: Ship (hazmat cat A). MMSI: 237038200.

Date/timePositionNaut miles runAvg speedWind from/ knotsBaromVisibWave heightAir tempDewpointWater temp
2015-Jul-31 16:33N 37°55' E 023°40'1211.9
2015-Jul-31 15:33N 37°48' E 023°28'3 3.1
2015-Jul-31 14:29N 37°45' E 023°26'0 0.0
2015-Jul-31 13:33N 37°45' E 023°26'7 6.8
2015-Jul-31 12:33N 37°38' E 023°25'14 6.8
2015-Jul-31 10:32N 37°25' E 023°32'8 2.5
2015-Jul-31 07:30N 37°33' E 023°33'1212.1
2015-Jul-31 06:33N 37°44' E 023°35'1211.7
2015-Jul-31 05:33N 37°55' E 023°40'1 1.5
2015-Jul-31 04:33N 37°56' E 023°41'0 0.0
2015-Jul-30 17:20N 37°56' E 023°41'3 3.7
2015-Jul-30 16:33N 37°54' E 023°39'1211.6
2015-Jul-30 15:33N 37°47' E 023°27'3 1.1
2015-Jul-30 13:09N 37°45' E 023°26'711.5
2015-Jul-30 12:32N 37°38' E 023°25'8 5.5
2015-Jul-30 11:07N 37°30' E 023°27'610.3
2015-Jul-30 10:33N 37°26' E 023°32'6 4.4
2015-Jul-30 09:14N 37°21' E 023°28'11 6.8
2015-Jul-30 07:33N 37°32' E 023°33'1211.9
2015-Jul-30 06:33N 37°44' E 023°34'1211.7
2015-Jul-30 05:33N 37°54' E 023°39'2 2.2
2015-Jul-30 04:33N 37°56' E 023°41'2 0.2
2015-Jul-29 16:33N 37°55' E 023°39'1212.1
2015-Jul-29 15:33N 37°47' E 023°27'3 2.5
2015-Jul-29 14:29N 37°45' E 023°26'0 0.0
2015-Jul-29 13:19N 37°45' E 023°26'6 8.3
2015-Jul-29 12:32N 37°38' E 023°25'8 5.7
2015-Jul-29 11:04N 37°30' E 023°27'510.2
2015-Jul-29 10:33N 37°27' E 023°32'6 2.8
2015-Jul-29 08:21N 37°21' E 023°28'1011.4
2015-Jul-29 07:30N 37°30' E 023°33'1112.2
2015-Jul-29 06:33N 37°41' E 023°37'1212.0
2015-Jul-29 05:33N 37°53' E 023°39'3 3.4
2015-Jul-29 04:33N 37°56' E 023°41'4 0.3
2015-Jul-28 16:33N 37°53' E 023°37'1211.8
2015-Jul-28 15:33N 37°46' E 023°25'2 0.8
2015-Jul-28 13:26N 37°45' E 023°26'7 7.9
2015-Jul-28 12:31N 37°38' E 023°26'8 5.3
2015-Jul-28 11:06N 37°30' E 023°27'6 9.9
2015-Jul-28 10:31N 37°26' E 023°32'5 1.5
2015-Jul-28 07:33N 37°31' E 023°33'1212.0
2015-Jul-28 06:32N 37°43' E 023°35'1211.9
2015-Jul-28 05:33N 37°54' E 023°39'3 2.9
2015-Jul-28 04:33N 37°56' E 023°41'2 0.2
2015-Jul-27 16:33N 37°55' E 023°39'1212.2
2015-Jul-27 15:33N 37°47' E 023°27'3 1.4
2015-Jul-27 13:33N 37°45' E 023°26'6 6.4
2015-Jul-27 12:33N 37°38' E 023°26'8 8.3
2015-Jul-27 11:32N 37°30' E 023°27'5 4.9
2015-Jul-27 10:33N 37°27' E 023°32'6 6.0
2015-Jul-27 09:28N 37°21' E 023°28'0 0.0
2015-Jul-27 08:29N 37°21' E 023°28'1210.8
2015-Jul-27 07:24N 37°32' E 023°33'1012.0
2015-Jul-27 06:33N 37°42' E 023°36'1212.0
2015-Jul-27 05:33N 37°54' E 023°39'3 2.9
2015-Jul-27 04:33N 37°56' E 023°41'0 0.0
2015-Jul-26 17:32N 37°56' E 023°41'6 6.3
2015-Jul-26 16:33N 37°52' E 023°35'1110.6
2015-Jul-26 15:33N 37°45' E 023°26'0 0.0
2015-Jul-26 14:33N 37°45' E 023°26'0 0.0
2015-Jul-26 13:32N 37°45' E 023°26'1111.5
2015-Jul-26 12:33N 37°33' E 023°25'4 3.0
2015-Jul-26 11:20N 37°30' E 023°27'7 8.7
2015-Jul-26 10:33N 37°24' E 023°30'3 2.4
2015-Jul-26 09:14N 37°21' E 023°28'13 7.2
2015-Jul-26 07:31N 37°33' E 023°34'1111.9
2015-Jul-26 06:33N 37°44' E 023°36'1211.6
2015-Jul-26 05:33N 37°55' E 023°40'1 1.3
2015-Jul-26 04:33N 37°56' E 023°41'0 0.0
2015-Jul-26 03:33N 37°56' E 023°41'3 0.3
2015-Jul-25 16:33N 37°54' E 023°38'1212.0
2015-Jul-25 15:33N 37°47' E 023°26'2 0.9
2015-Jul-25 13:08N 37°45' E 023°26'711.4
2015-Jul-25 12:33N 37°38' E 023°26'15 6.4
2015-Jul-25 10:17N 37°24' E 023°31'4 4.8
2015-Jul-25 09:32N 37°21' E 023°28'0 0.0
2015-Jul-25 08:20N 37°21' E 023°28'910.9
2015-Jul-25 07:33N 37°29' E 023°32'1212.1
2015-Jul-25 06:33N 37°41' E 023°35'1212.1
2015-Jul-25 05:33N 37°52' E 023°39'4 4.1
2015-Jul-25 04:33N 37°56' E 023°41'3 0.2
2015-Jul-24 16:33N 37°54' E 023°39'1211.7
2015-Jul-24 15:33N 37°47' E 023°27'2 1.0
2015-Jul-24 13:12N 37°45' E 023°26'811.5
2015-Jul-24 12:29N 37°36' E 023°26'7 5.1
2015-Jul-24 11:05N 37°30' E 023°28'6 9.1
2015-Jul-24 10:23N 37°23' E 023°30'1 0.4
2015-Jul-24 08:10N 37°22' E 023°29'2012.1
2015-Jul-24 06:30N 37°42' E 023°37'1212.2
2015-Jul-24 05:33N 37°53' E 023°40'3 3.4
2015-Jul-24 04:33N 37°56' E 023°41'0 0.0
2015-Jul-23 17:33N 37°56' E 023°41'5 5.4
2015-Jul-23 16:33N 37°53' E 023°36'1111.4
2015-Jul-23 15:33N 37°45' E 023°25'1 0.6
2015-Jul-23 14:30N 37°45' E 023°26'0 0.0
2015-Jul-23 13:32N 37°45' E 023°26'1311.6
2015-Jul-23 12:26N 37°33' E 023°32'1010.5
2015-Jul-23 11:30N 37°23' E 023°29'5 2.3
2015-Jul-23 09:22N 37°28' E 023°31'17 6.1
2015-Jul-23 06:33N 37°45' E 023°34'1211.6
2015-Jul-23 05:33N 37°55' E 023°40'1 1.1
2015-Jul-23 04:33N 37°56' E 023°41'2 0.2
2015-Jul-22 16:34N 37°55' E 023°39'1111.3
2015-Jul-22 15:34N 37°48' E 023°28'4 3.8
2015-Jul-22 14:30N 37°45' E 023°26'0 0.0
2015-Jul-22 13:11N 37°45' E 023°26'711.4
2015-Jul-22 12:33N 37°38' E 023°25'15 6.4
2015-Jul-22 10:11N 37°23' E 023°29'2 2.8
2015-Jul-22 09:19N 37°21' E 023°27'17 7.5
2015-Jul-22 07:05N 37°37' E 023°35'712.2
2015-Jul-22 06:33N 37°43' E 023°35'1211.7
2015-Jul-22 05:33N 37°54' E 023°39'2 2.3
2015-Jul-22 04:33N 37°56' E 023°41'0 0.0
2015-Jul-21 21:30N 37°56' E 023°41'0 0.0
2015-Jul-21 20:33N 37°56' E 023°41'0 0.0
2015-Jul-21 19:33N 37°56' E 023°41'0 0.0
2015-Jul-21 18:33N 37°56' E 023°41'0 0.0
2015-Jul-21 17:33N 37°56' E 023°41'5 5.1
2015-Jul-21 16:33N 37°54' E 023°36'  
Track history (hours):
 
Tides and Currents Weather Stations Pressure Air Temp Water Temp Dewpoint Dewpoint Depression Visibility Wind Speed Wind Dir Waves Ship Positions

Platitera Tonouranon

Last reported at 2015-Jul-31 16:33 UTC. Time now 2015-Jul-31 23:29 UTC.
Position N 37°55' E 023°40'.

Length 55 m; draft 3.8 m.

Type: Ship (hazmat cat A). MMSI: 237038200.

Date/timePositionNaut miles runAvg speedWind from/ knotsBaromVisibWave heightAir tempDewpointWater temp
2015-Jul-31 16:33N 37°55' E 023°40'1211.9
2015-Jul-31 15:33N 37°48' E 023°28'3 3.1
2015-Jul-31 14:29N 37°45' E 023°26'0 0.0
2015-Jul-31 13:33N 37°45' E 023°26'7 6.8
2015-Jul-31 12:33N 37°38' E 023°25'14 6.8
2015-Jul-31 10:32N 37°25' E 023°32'8 2.5
2015-Jul-31 07:30N 37°33' E 023°33'1212.1
2015-Jul-31 06:33N 37°44' E 023°35'1211.7
2015-Jul-31 05:33N 37°55' E 023°40'1 1.5
2015-Jul-31 04:33N 37°56' E 023°41'0 0.0
2015-Jul-30 17:20N 37°56' E 023°41'3 3.7
2015-Jul-30 16:33N 37°54' E 023°39'1211.6
2015-Jul-30 15:33N 37°47' E 023°27'3 1.1
2015-Jul-30 13:09N 37°45' E 023°26'711.5
2015-Jul-30 12:32N 37°38' E 023°25'8 5.5
2015-Jul-30 11:07N 37°30' E 023°27'610.3
2015-Jul-30 10:33N 37°26' E 023°32'6 4.4
2015-Jul-30 09:14N 37°21' E 023°28'11 6.8
2015-Jul-30 07:33N 37°32' E 023°33'1211.9
2015-Jul-30 06:33N 37°44' E 023°34'1211.7
2015-Jul-30 05:33N 37°54' E 023°39'2 2.2
2015-Jul-30 04:33N 37°56' E 023°41'2 0.2
2015-Jul-29 16:33N 37°55' E 023°39'1212.1
2015-Jul-29 15:33N 37°47' E 023°27'3 2.5
2015-Jul-29 14:29N 37°45' E 023°26'0 0.0
2015-Jul-29 13:19N 37°45' E 023°26'6 8.3
2015-Jul-29 12:32N 37°38' E 023°25'8 5.7
2015-Jul-29 11:04N 37°30' E 023°27'510.2
2015-Jul-29 10:33N 37°27' E 023°32'6 2.8
2015-Jul-29 08:21N 37°21' E 023°28'1011.4
2015-Jul-29 07:30N 37°30' E 023°33'1112.2
2015-Jul-29 06:33N 37°41' E 023°37'1212.0
2015-Jul-29 05:33N 37°53' E 023°39'3 3.4
2015-Jul-29 04:33N 37°56' E 023°41'4 0.3
2015-Jul-28 16:33N 37°53' E 023°37'1211.8
2015-Jul-28 15:33N 37°46' E 023°25'2 0.8
2015-Jul-28 13:26N 37°45' E 023°26'7 7.9
2015-Jul-28 12:31N 37°38' E 023°26'8 5.3
2015-Jul-28 11:06N 37°30' E 023°27'6 9.9
2015-Jul-28 10:31N 37°26' E 023°32'5 1.5
2015-Jul-28 07:33N 37°31' E 023°33'1212.0
2015-Jul-28 06:32N 37°43' E 023°35'1211.9
2015-Jul-28 05:33N 37°54' E 023°39'3 2.9
2015-Jul-28 04:33N 37°56' E 023°41'2 0.2
2015-Jul-27 16:33N 37°55' E 023°39'1212.2
2015-Jul-27 15:33N 37°47' E 023°27'3 1.4
2015-Jul-27 13:33N 37°45' E 023°26'6 6.4
2015-Jul-27 12:33N 37°38' E 023°26'8 8.3
2015-Jul-27 11:32N 37°30' E 023°27'5 4.9
2015-Jul-27 10:33N 37°27' E 023°32'6 6.0
2015-Jul-27 09:28N 37°21' E 023°28'0 0.0
2015-Jul-27 08:29N 37°21' E 023°28'1210.8
2015-Jul-27 07:24N 37°32' E 023°33'1012.0
2015-Jul-27 06:33N 37°42' E 023°36'1212.0
2015-Jul-27 05:33N 37°54' E 023°39'3 2.9
2015-Jul-27 04:33N 37°56' E 023°41'0 0.0
2015-Jul-26 17:32N 37°56' E 023°41'6 6.3
2015-Jul-26 16:33N 37°52' E 023°35'1110.6
2015-Jul-26 15:33N 37°45' E 023°26'0 0.0
2015-Jul-26 14:33N 37°45' E 023°26'0 0.0
2015-Jul-26 13:32N 37°45' E 023°26'1111.5
2015-Jul-26 12:33N 37°33' E 023°25'4 3.0
2015-Jul-26 11:20N 37°30' E 023°27'7 8.7
2015-Jul-26 10:33N 37°24' E 023°30'3 2.4
2015-Jul-26 09:14N 37°21' E 023°28'13 7.2
2015-Jul-26 07:31N 37°33' E 023°34'1111.9
2015-Jul-26 06:33N 37°44' E 023°36'1211.6
2015-Jul-26 05:33N 37°55' E 023°40'1 1.3
2015-Jul-26 04:33N 37°56' E 023°41'0 0.0
2015-Jul-26 03:33N 37°56' E 023°41'3 0.3
2015-Jul-25 16:33N 37°54' E 023°38'1212.0
2015-Jul-25 15:33N 37°47' E 023°26'2 0.9
2015-Jul-25 13:08N 37°45' E 023°26'711.4
2015-Jul-25 12:33N 37°38' E 023°26'15 6.4
2015-Jul-25 10:17N 37°24' E 023°31'4 4.8
2015-Jul-25 09:32N 37°21' E 023°28'0 0.0
2015-Jul-25 08:20N 37°21' E 023°28'910.9
2015-Jul-25 07:33N 37°29' E 023°32'1212.1
2015-Jul-25 06:33N 37°41' E 023°35'1212.1
2015-Jul-25 05:33N 37°52' E 023°39'4 4.1
2015-Jul-25 04:33N 37°56' E 023°41'3 0.2
2015-Jul-24 16:33N 37°54' E 023°39'1211.7
2015-Jul-24 15:33N 37°47' E 023°27'2 1.0
2015-Jul-24 13:12N 37°45' E 023°26'811.5
2015-Jul-24 12:29N 37°36' E 023°26'7 5.1
2015-Jul-24 11:05N 37°30' E 023°28'6 9.1
2015-Jul-24 10:23N 37°23' E 023°30'1 0.4
2015-Jul-24 08:10N 37°22' E 023°29'2012.1
2015-Jul-24 06:30N 37°42' E 023°37'1212.2
2015-Jul-24 05:33N 37°53' E 023°40'3 3.4
2015-Jul-24 04:33N 37°56' E 023°41'0 0.0
2015-Jul-23 17:33N 37°56' E 023°41'5 5.4
2015-Jul-23 16:33N 37°53' E 023°36'1111.4
2015-Jul-23 15:33N 37°45' E 023°25'1 0.6
2015-Jul-23 14:30N 37°45' E 023°26'0 0.0
2015-Jul-23 13:32N 37°45' E 023°26'1311.6
2015-Jul-23 12:26N 37°33' E 023°32'1010.5
2015-Jul-23 11:30N 37°23' E 023°29'5 2.3
2015-Jul-23 09:22N 37°28' E 023°31'17 6.1
2015-Jul-23 06:33N 37°45' E 023°34'1211.6
2015-Jul-23 05:33N 37°55' E 023°40'1 1.1
2015-Jul-23 04:33N 37°56' E 023°41'2 0.2
2015-Jul-22 16:34N 37°55' E 023°39'1111.3
2015-Jul-22 15:34N 37°48' E 023°28'4 3.8
2015-Jul-22 14:30N 37°45' E 023°26'0 0.0
2015-Jul-22 13:11N 37°45' E 023°26'711.4
2015-Jul-22 12:33N 37°38' E 023°25'15 6.4
2015-Jul-22 10:11N 37°23' E 023°29'2 2.8
2015-Jul-22 09:19N 37°21' E 023°27'17 7.5
2015-Jul-22 07:05N 37°37' E 023°35'712.2
2015-Jul-22 06:33N 37°43' E 023°35'1211.7
2015-Jul-22 05:33N 37°54' E 023°39'2 2.3
2015-Jul-22 04:33N 37°56' E 023°41'0 0.0
2015-Jul-21 21:30N 37°56' E 023°41'0 0.0
2015-Jul-21 20:33N 37°56' E 023°41'0 0.0
2015-Jul-21 19:33N 37°56' E 023°41'0 0.0
2015-Jul-21 18:33N 37°56' E 023°41'0 0.0
2015-Jul-21 17:33N 37°56' E 023°41'5 5.1
2015-Jul-21 16:33N 37°54' E 023°36'  

Dump ship's entire track history